Terminal Aerodrome Forecast
Issued by NWS Austin/San Antonio, TX

Home | Current Version | Previous Version | Text Only | Print | Product List | Glossary On
Versions: 1 2 3 4 5 6 7 8 9 10 11 12 13 14 15 16 17 18
000
FTUS44 KEWX 281122
TAFSAT
TAF
KSAT 281122Z 2812/2918 32010G20KT P6SM SCT040
     FM281600 36015G25KT P6SM BKN025 BKN250
     FM290200 34008KT P6SM SCT035 BKN250
     FM290600 33007KT P6SM SCT050
     FM291600 36005KT P6SM FEW250=

USA.gov is the U.S. government's official web portal to all federal, state and local government web resources and services.